Terminal Aerodrome Forecast
Issued by NWS

Home | Current Version | Previous Version | Text Only | Print | Product List | Glossary On
Versions: 1 2 3 4 5 6 7 8 9 10 11
736
FTUS42 TJSJ 081730
TAFJMZ
TAF
TJMZ 081730Z 0818/0918 27010KT P6SM FEW030 SCT050
     FM082300 VRB05KT P6SM FEW025
      AMD NOT SKED TIL 091500=

USA.gov is the U.S. government's official web portal to all federal, state and local government web resources and services.